createdAt,value
2019-03-10T00:03:39.985Z,3
2019-03-10T00:13:46.829Z,7
2019-03-10T00:23:53.044Z,4
2019-03-10T00:34:00.072Z,3
2019-03-10T00:44:06.760Z,4
2019-03-10T00:54:10.861Z,6
2019-03-10T01:04:16.399Z,4
2019-03-10T01:14:25.565Z,3
2019-03-10T01:24:32.161Z,3
2019-03-10T01:34:39.888Z,3
2019-03-10T01:44:45.365Z,3
2019-03-10T01:54:00.634Z,4
2019-03-10T02:04:07.134Z,4
2019-03-10T02:14:13.249Z,3
2019-03-10T02:24:24.981Z,3
2019-03-10T02:34:28.705Z,6
2019-03-10T02:44:37.202Z,5
2019-03-10T02:54:45.245Z,2
2019-03-10T03:04:54.085Z,4
2019-03-10T03:15:01.626Z,3
2019-03-10T03:22:19.029Z,5
2019-03-10T03:32:25.679Z,14
2019-03-10T03:42:31.720Z,23
2019-03-10T03:52:39.527Z,31
2019-03-10T04:02:47.427Z,47
2019-03-10T04:12:56.695Z,32
2019-03-10T04:23:04.735Z,24
2019-03-10T04:33:12.215Z,71
2019-03-10T04:43:18.275Z,71
2019-03-10T04:53:25.104Z,68
2019-03-10T05:03:29.874Z,64
2019-03-10T05:13:37.243Z,57
2019-03-10T05:23:43.490Z,44
2019-03-10T05:33:51.150Z,36
2019-03-10T05:43:58.683Z,33
2019-03-10T05:54:03.931Z,54
2019-03-10T06:01:20.239Z,79
2019-03-10T06:11:26.741Z,17
2019-03-10T06:21:34.453Z,7
2019-03-10T06:31:40.627Z,3
2019-03-10T06:41:46.502Z,3
2019-03-10T06:51:53.056Z,4
2019-03-10T07:01:57.771Z,3
2019-03-10T07:12:04.633Z,20
2019-03-10T07:22:12.276Z,48
2019-03-10T07:32:19.614Z,6
2019-03-10T07:42:25.867Z,4
2019-03-10T07:52:33.401Z,3
2019-03-10T08:02:40.069Z,3
2019-03-10T08:12:48.032Z,4
2019-03-10T08:22:54.585Z,4
2019-03-10T08:33:02.075Z,3
2019-03-10T08:43:07.381Z,4
2019-03-10T09:00:28.932Z,3
2019-03-10T09:10:35.643Z,3
2019-03-10T09:20:42.776Z,3
2019-03-10T09:30:48.626Z,10
2019-03-10T09:40:56.849Z,85
2019-03-10T09:51:04.627Z,69
2019-03-10T09:53:19.288Z,4
2019-03-10T10:03:26.271Z,78
2019-03-10T10:12:46.645Z,27
2019-03-10T10:22:51.286Z,4
2019-03-10T10:27:07.687Z,8
2019-03-10T10:37:11.957Z,4
2019-03-10T10:40:28.396Z,3
2019-03-10T10:49:53.869Z,5
2019-03-10T10:57:07.681Z,7
2019-03-10T11:07:16.116Z,3
2019-03-10T11:17:23.715Z,3
2019-03-10T11:27:31.736Z,8
2019-03-10T11:37:42.625Z,4
2019-03-10T11:47:48.591Z,3
2019-03-10T11:57:55.900Z,3
2019-03-10T12:08:03.415Z,2
2019-03-10T12:18:08.175Z,3
2019-03-10T12:28:16.324Z,3
2019-03-10T12:38:23.069Z,3
2019-03-10T12:42:36.226Z,4
2019-03-10T12:48:03.545Z,3
2019-03-10T12:58:07.191Z,3
2019-03-10T13:08:17.256Z,4
2019-03-10T13:15:33.777Z,4
2019-03-10T13:25:36.591Z,3
2019-03-10T13:35:44.295Z,3
2019-03-10T13:56:01.784Z,4
2019-03-10T14:06:07.795Z,3
2019-03-10T14:16:17.112Z,3
2019-03-10T14:26:21.484Z,4
2019-03-10T14:36:31.623Z,3
2019-03-10T14:46:39.491Z,5
2019-03-10T14:56:44.673Z,4
2019-03-10T15:06:51.983Z,4
2019-03-10T15:17:02.806Z,6
2019-03-10T15:27:24.079Z,5
2019-03-10T15:37:22.594Z,4
2019-03-10T15:47:31.961Z,3
2019-03-10T15:54:46.727Z,3
2019-03-10T16:04:05.088Z,5
2019-03-10T16:07:25.017Z,4
2019-03-10T16:17:27.073Z,5
2019-03-10T16:27:32.889Z,3
2019-03-10T16:37:42.963Z,2
2019-03-10T16:47:50.423Z,3
2019-03-10T16:57:58.095Z,4
2019-03-10T17:08:04.223Z,4
2019-03-10T17:18:10.172Z,4
2019-03-10T17:28:17.297Z,5
2019-03-10T17:38:24.039Z,4
2019-03-10T17:48:27.770Z,16
2019-03-10T17:58:36.025Z,3
2019-03-10T18:08:46.984Z,9
2019-03-10T18:18:54.582Z,19
2019-03-10T18:29:00.349Z,32
2019-03-10T18:39:08.098Z,17
2019-03-10T18:49:16.544Z,31
2019-03-10T18:59:22.508Z,17
2019-03-10T19:09:29.985Z,35
2019-03-10T19:19:36.910Z,25
2019-03-10T19:29:45.290Z,24
2019-03-10T19:39:52.133Z,14
2019-03-10T19:49:58.810Z,6
2019-03-10T20:00:07.403Z,5
2019-03-10T20:10:15.524Z,5
2019-03-10T20:20:21.767Z,6
2019-03-10T20:30:28.010Z,6
2019-03-10T20:40:35.397Z,6
2019-03-10T20:50:43.849Z,8
2019-03-10T21:00:50.901Z,7
2019-03-10T21:11:01.173Z,6
2019-03-10T21:13:16.739Z,5
2019-03-10T21:23:19.724Z,7
2019-03-10T21:33:25.118Z,4
2019-03-10T21:43:30.636Z,6
2019-03-10T21:53:38.385Z,6
2019-03-10T22:03:45.203Z,6
2019-03-10T22:11:00.918Z,5
2019-03-10T22:16:14.679Z,7
2019-03-10T22:24:36.592Z,6
2019-03-10T22:25:46.992Z,5
2019-03-10T22:35:48.519Z,5
2019-03-10T22:45:56.090Z,7
2019-03-10T22:56:03.230Z,5
2019-03-10T23:06:08.100Z,10
2019-03-10T23:16:16.656Z,21
2019-03-10T23:26:23.467Z,7
2019-03-10T23:36:28.693Z,6
2019-03-10T23:46:35.583Z,6
2019-03-10T23:56:40.124Z,8
